Willcox, AZ (85643)

3:58 AM MST on July 25, 2016 (GMT -0700)
14 miles North West of Willcox | | Change Station

Elev 4275 ft 32.38 °N, 109.95 °W | Updated 3 seconds ago

Clear
Clear
63.3 °F
Feels Like 63.3 °F
N
0.9
Wind Variable Wind from WSW
Gusts 1.0 mph

Today
High -- | Low -- °F
--% Chance of Precip.
Yesterday
High -- | Low -- °F
Precip. -- in
Pressure 29.86 in
Visibility 10.0 miles
Clouds Clear
Dew Point 58 °F
Humidity 82%
Rainfall 0.00 in
Snow Depth Not available.
5:29 AM 7:21 PM
Waning Gibbous, 67% visible
METAR KSAD 251051Z AUTO 10007KT 10SM CLR 27/12 A3004 RMK AO2 SLP109 T02670122
Pressure 29.86 in
Visibility 10.0 miles
Clouds Clear
Dew Point 58 °F
Humidity 82%
Rainfall 0.00 in
Snow Depth Not available.
5:29 AM 7:21 PM
Waning Gibbous, 67% visible
METAR KSAD 251051Z AUTO 10007KT 10SM CLR 27/12 A3004 RMK AO2 SLP109 T02670122

10-Day Weather Forecast

Almanac

Astronomy

Jul. 25, 2016 Rise Set
Actual Time
Civil Twilight
Nautical Twilight
Astronomical Twilight
Moon
Length of Visible Light
Length of Day
Tomorrow will be .
, % of the Moon is Illuminated

Today's Extremes

State Highs State Lows

Community

WunderPhotos

Upload Photos

1,927,291 photos uploaded!

WunderBlog® & News

Nearby

Air Quality

  Air Quality AQ Index Pollutant
Not available.

Snow Depth

Station Depth Elevation

Earthquake Activity

City Distance Mag. Time & Date
Minimum magnitude displayed is 2.5.

Coastal Water Temperatures

Place Temperature

Stations

Nearby Weather Stations

Station Location Temp. Windchill Dew Point Humidity Wind Precip. Elev Updated Type
                   

Watches & Warnings

There are currently no watches in effect.